»·PEaware :: DAL712 KPDX-KSEA

DAL712 :: KPDX-KSEA

FLIGHT INFORMATION

Flight Status: Arrived
Operator:
Delta Air Lines
More flights by this operator :: More flights under this callsign
Pilot: Dean L. (8400)
Aircraft: BOEING 717-200
(B712)
More flights by this aircraft type
Origin: KPDX Portland Intl
United States
Destination: KSEA Seattle-Tacoma Intl
United States
More flights between these airports :: More routes between these airports
Route: +COUGA KRIEG HAWKZ6
File this flight plan on PilotEdge
Remarks:
Altitude:
(Current/Filed)
14,000ft
Speed:
(Current/Filed)
425kts
Departed: 07-Sep-18 03:44 PM
Arrived: 07-Sep-18 04:22 PM
Distance/Time
Traveled:
112nm/0:38
Distance/Time
To Go:
Arrived

Flight Plot

Page will automatically refresh every two minutes.

Flight plan parsing failed; only flown route is shown


Map Options




Map Legend


Flown Route
Filed Route
Departure Airport
Arrival Airport
Navaid (VOR, NDB)
Fix

Horizontal Profiles

Position Reports

Time Latitude Longitude Heading Altitude Ground
Speed
07-Sep-18 15:27 45.591725 -122.595064 208 26ft 0kts
07-Sep-18 15:28 45.591725 -122.595064 208 26ft 0kts
07-Sep-18 15:29 45.591725 -122.595064 208 26ft 0kts
07-Sep-18 15:30 45.591725 -122.595064 208 26ft 0kts
07-Sep-18 15:31 45.591725 -122.595064 208 26ft 0kts
07-Sep-18 15:32 45.591725 -122.595064 208 26ft 0kts
07-Sep-18 15:33 45.591725 -122.595064 208 26ft 0kts
07-Sep-18 15:34 45.591725 -122.595064 208 26ft 0kts
07-Sep-18 15:35 45.591725 -122.595064 208 26ft 0kts
07-Sep-18 15:36 45.591725 -122.595064 208 26ft 0kts
07-Sep-18 15:37 45.591724 -122.595064 208 26ft 0kts
07-Sep-18 15:38 45.591724 -122.595065 208 26ft 0kts
07-Sep-18 15:39 45.591723 -122.595065 208 26ft 0kts
07-Sep-18 15:40 45.591722 -122.595066 208 26ft 0kts
07-Sep-18 15:41 45.591722 -122.595066 208 26ft 0kts
07-Sep-18 15:42 45.591721 -122.595067 208 26ft 0kts
07-Sep-18 15:43 45.591721 -122.595067 208 26ft 0kts
07-Sep-18 15:44 45.591712 -122.595077 213 26ft 0kts
07-Sep-18 15:45 45.590470 -122.600711 232 26ft 25kts
07-Sep-18 15:46 45.586501 -122.595784 118 26ft 44kts
07-Sep-18 15:47 45.582831 -122.586387 117 26ft 8kts
07-Sep-18 15:48 45.581743 -122.583765 136 26ft 0kts
07-Sep-18 15:49 45.581742 -122.583765 136 26ft 0kts
07-Sep-18 15:50 45.581742 -122.583764 136 26ft 0kts
07-Sep-18 15:51 45.585885 -122.597142 299 27ft 146kts
07-Sep-18 15:52 45.613549 -122.665014 303 3600ft 214kts
07-Sep-18 15:53 45.648427 -122.741123 302 6731ft 234kts
07-Sep-18 15:54 45.688219 -122.819845 303 7409ft 253kts
07-Sep-18 15:55 45.752063 -122.844783 16 11121ft 280kts
07-Sep-18 15:56 45.831658 -122.805600 16 13165ft 352kts
07-Sep-18 15:57 45.937358 -122.753720 16 13880ft 435kts
07-Sep-18 15:58 46.053893 -122.696390 15 14094ft 443kts
07-Sep-18 15:59 46.173753 -122.692842 347 14111ft 431kts
07-Sep-18 16:00 46.292916 -122.716830 348 14109ft 432kts
07-Sep-18 16:01 46.413897 -122.725631 354 14102ft 436kts
07-Sep-18 16:02 46.535282 -122.729958 354 14104ft 436kts
07-Sep-18 16:03 46.656685 -122.734349 354 14102ft 436kts
07-Sep-18 16:04 46.778095 -122.728534 14 14090ft 445kts
07-Sep-18 16:05 46.881040 -122.626878 37 14089ft 450kts
07-Sep-18 16:06 46.987434 -122.538906 12 13989ft 422kts
07-Sep-18 16:07 47.091651 -122.498104 5 13391ft 361kts
07-Sep-18 16:08 47.189573 -122.480375 2 11704ft 349kts
07-Sep-18 16:09 47.283330 -122.465881 2 10582ft 324kts
07-Sep-18 16:10 47.370870 -122.453403 3 9206ft 311kts
07-Sep-18 16:11 47.455563 -122.443559 2 8070ft 290kts
07-Sep-18 16:12 47.532499 -122.435212 2 7366ft 263kts
07-Sep-18 16:13 47.602043 -122.427933 1 6823ft 244kts
07-Sep-18 16:14 47.669814 -122.425543 359 6087ft 243kts
07-Sep-18 16:15 47.736934 -122.414906 37 5062ft 244kts
07-Sep-18 16:16 47.756804 -122.325707 85 4173ft 227kts
07-Sep-18 16:17 47.730018 -122.256146 176 4097ft 215kts
07-Sep-18 16:18 47.673972 -122.285531 202 4109ft 214kts
07-Sep-18 16:19 47.617639 -122.308966 178 3443ft 195kts
07-Sep-18 16:20 47.572831 -122.306781 179 2545ft 146kts
07-Sep-18 16:21 47.531867 -122.307131 180 1791ft 147kts
07-Sep-18 16:22 47.490727 -122.307696 181 1016ft 145kts
07-Sep-18 16:23 47.451539 -122.307819 181 442ft 121kts
07-Sep-18 16:24 47.438771 -122.306488 99 441ft 17kts
07-Sep-18 16:25 47.438883 -122.303166 84 441ft 0kts

Navigation Log

Ident Type
Flight plan parsing failed, navigation log unavailable